createdAt,value
2023-04-25T00:05:16.640Z,98681.66
2023-04-25T00:08:18.733Z,98679.20
2023-04-25T00:11:20.664Z,98677.70
2023-04-25T00:14:23.526Z,98671.61
2023-04-25T00:17:25.431Z,98672.95
2023-04-25T00:20:27.314Z,98665.65
2023-04-25T00:23:29.401Z,98659.31
2023-04-25T00:26:31.321Z,98653.59
2023-04-25T00:29:34.082Z,98654.08
2023-04-25T00:32:36.366Z,98648.59
2023-04-25T00:35:38.889Z,98647.14
2023-04-25T00:38:40.852Z,98650.95
2023-04-25T00:41:44.272Z,98648.27
2023-04-25T00:44:47.086Z,98651.83
2023-04-25T00:47:49.096Z,98644.09
2023-04-25T00:50:57.221Z,98646.29
2023-04-25T00:53:59.904Z,98640.92
2023-04-25T00:57:03.441Z,98641.95
2023-04-25T01:00:07.222Z,98642.33
2023-04-25T01:03:11.509Z,98642.27
2023-04-25T01:06:13.954Z,98641.33
2023-04-25T01:09:16.498Z,98639.83
2023-04-25T01:12:19.122Z,98640.58
2023-04-25T01:15:22.535Z,98637.42
2023-04-25T01:18:25.058Z,98636.45
2023-04-25T01:21:28.576Z,98632.59
2023-04-25T01:24:33.151Z,98630.04
2023-04-25T01:27:37.317Z,98629.02
2023-04-25T01:30:39.772Z,98629.46
2023-04-25T01:33:42.139Z,98629.83
2023-04-25T01:36:44.059Z,98627.77
2023-04-25T01:39:46.246Z,98623.73
2023-04-25T01:42:48.968Z,98622.17
2023-04-25T01:45:51.891Z,98618.05
2023-04-25T01:48:54.062Z,98615.98
2023-04-25T01:55:33.028Z,98616.08
2023-04-25T01:58:40.794Z,98616.25
2023-04-25T02:05:15.978Z,98610.39
2023-04-25T02:08:19.320Z,98615.80
2023-04-25T02:11:21.307Z,98619.02
2023-04-25T02:14:43.888Z,98617.60
2023-04-25T02:17:56.442Z,98617.77
2023-04-25T02:21:00.131Z,98613.89
2023-04-25T02:24:02.588Z,98615.90
2023-04-25T02:27:04.761Z,98611.31
2023-04-25T02:30:07.619Z,98609.32
2023-04-25T02:33:10.960Z,98607.34
2023-04-25T02:36:13.215Z,98610.44
2023-04-25T02:39:17.555Z,98607.01
2023-04-25T02:42:19.919Z,98606.04
2023-04-25T02:45:21.998Z,98602.48
2023-04-25T02:48:24.118Z,98608.41
2023-04-25T02:51:27.439Z,98607.20
2023-04-25T02:54:31.017Z,98607.52
2023-04-25T02:57:33.234Z,98609.93
2023-04-25T03:00:35.215Z,98611.60
2023-04-25T03:03:37.553Z,98618.01
2023-04-25T03:06:40.667Z,98611.34
2023-04-25T03:09:42.679Z,98614.98
2023-04-25T03:12:45.015Z,98611.58
2023-04-25T03:15:46.970Z,98613.15
2023-04-25T03:18:50.867Z,98612.31
2023-04-25T03:21:55.164Z,98612.04
2023-04-25T03:24:57.193Z,98606.96
2023-04-25T03:27:59.917Z,98601.13
2023-04-25T03:31:03.227Z,98605.40
2023-04-25T03:34:05.903Z,98608.05
2023-04-25T03:37:08.195Z,98608.30
2023-04-25T03:40:12.933Z,98606.97
2023-04-25T03:43:35.879Z,98610.23
2023-04-25T03:46:41.326Z,98606.11
2023-04-25T03:49:43.777Z,98605.34
2023-04-25T03:52:45.891Z,98608.25
2023-04-25T03:55:48.256Z,98608.45
2023-04-25T03:58:50.709Z,98609.02
2023-04-25T04:05:15.315Z,98606.83
2023-04-25T04:08:26.430Z,98609.59
2023-04-25T04:11:31.254Z,98605.78
2023-04-25T04:14:34.322Z,98602.02
2023-04-25T04:17:37.968Z,98599.42
2023-04-25T04:20:40.230Z,98602.61
2023-04-25T04:23:42.569Z,98597.41
2023-04-25T04:26:47.431Z,98597.77
2023-04-25T04:30:08.881Z,98594.33
2023-04-25T04:33:21.901Z,98595.30
2023-04-25T04:36:31.383Z,98593.38
2023-04-25T04:39:34.924Z,98597.41
2023-04-25T04:42:46.994Z,98597.09
2023-04-25T04:46:02.117Z,98595.02
2023-04-25T04:49:41.160Z,98595.86
2023-04-25T04:53:05.203Z,98593.79
2023-04-25T04:56:31.534Z,98592.30
2023-04-25T04:59:51.058Z,98590.19
2023-04-25T05:03:15.163Z,98588.35
2023-04-25T05:06:36.621Z,98586.95
2023-04-25T05:10:13.935Z,98589.91
2023-04-25T05:13:45.839Z,98586.04
2023-04-25T05:17:16.402Z,98589.45
2023-04-25T05:20:40.770Z,98589.80
2023-04-25T05:24:03.847Z,98585.58
2023-04-25T05:27:35.053Z,98581.88
2023-04-25T05:30:51.935Z,98580.52
2023-04-25T05:33:59.006Z,98581.50
2023-04-25T05:37:09.454Z,98576.86
2023-04-25T05:40:23.183Z,98576.93
2023-04-25T05:43:52.660Z,98579.52
2023-04-25T05:47:01.633Z,98575.08
2023-04-25T05:50:26.556Z,98575.35
2023-04-25T05:53:39.599Z,98567.65
2023-04-25T05:56:42.914Z,98564.83
2023-04-25T05:59:46.667Z,98566.13
2023-04-25T06:05:16.905Z,98566.77
2023-04-25T06:08:20.963Z,98561.23
2023-04-25T06:11:24.312Z,98566.80
2023-04-25T06:14:29.721Z,98567.85
2023-04-25T06:17:32.164Z,98563.67
2023-04-25T06:20:35.099Z,98556.92
2023-04-25T06:23:37.042Z,98557.70
2023-04-25T06:26:42.902Z,98549.11
2023-04-25T06:29:45.324Z,98546.13
2023-04-25T06:32:51.637Z,98543.17
2023-04-25T06:35:54.330Z,98542.44
2023-04-25T06:39:05.017Z,98539.84
2023-04-25T06:42:10.911Z,98538.02
2023-04-25T06:45:21.267Z,98542.27
2023-04-25T06:48:24.929Z,98539.33
2023-04-25T06:51:30.244Z,98545.71
2023-04-25T06:54:33.609Z,98541.70
2023-04-25T06:57:40.544Z,98539.20
2023-04-25T07:01:04.944Z,98535.77
2023-04-25T07:04:08.132Z,98535.39
2023-04-25T07:07:14.385Z,98537.61
2023-04-25T07:10:28.286Z,98535.91
2023-04-25T07:13:31.281Z,98532.98
2023-04-25T07:16:34.226Z,98535.12
2023-04-25T07:24:12.764Z,98538.58
2023-04-25T07:42:48.371Z,98523.34
2023-04-25T07:47:15.880Z,98519.01
2023-04-25T07:55:40.125Z,98518.96
2023-04-25T08:05:36.390Z,98512.55
2023-04-25T08:10:01.066Z,98507.69
2023-04-25T08:29:47.268Z,98499.86
2023-04-25T08:50:20.707Z,98486.28
2023-04-25T08:58:09.996Z,98482.33
2023-04-25T09:02:27.533Z,98480.24
2023-04-25T09:07:07.411Z,98471.83
2023-04-25T09:15:54.370Z,98468.29
2023-04-25T09:40:34.782Z,98455.53
2023-04-25T09:50:03.902Z,98447.33
2023-04-25T10:05:46.449Z,98417.36
2023-04-25T10:08:55.701Z,98423.86
2023-04-25T10:11:59.529Z,98425.08
2023-04-25T10:15:06.184Z,98417.65
2023-04-25T10:18:10.137Z,98409.69
2023-04-25T10:21:20.575Z,98410.98
2023-04-25T10:24:24.667Z,98408.13
2023-04-25T10:27:30.613Z,98405.98
2023-04-25T10:30:32.733Z,98407.38
2023-04-25T10:33:42.630Z,98401.51
2023-04-25T10:36:53.041Z,98399.92
2023-04-25T10:39:55.133Z,98406.35
2023-04-25T10:43:38.535Z,98401.66
2023-04-25T10:46:41.000Z,98395.64
2023-04-25T10:49:52.560Z,98392.88
2023-04-25T10:52:57.461Z,98390.41
2023-04-25T10:56:04.447Z,98393.23
2023-04-25T10:59:47.014Z,98392.94
2023-04-25T11:14:21.007Z,98376.52
2023-04-25T11:24:02.339Z,98365.48
2023-04-25T11:27:35.408Z,98364.41
2023-04-25T11:31:25.989Z,98360.66
2023-04-25T11:39:50.777Z,98350.89
2023-04-25T11:48:51.154Z,98344.30
2023-04-25T11:52:42.134Z,98342.92
2023-04-25T11:56:17.299Z,98338.98
2023-04-25T12:04:38.043Z,98325.98
2023-04-25T12:08:52.888Z,98321.14
2023-04-25T12:39:25.296Z,98298.70
2023-04-25T13:19:10.793Z,98245.70
2023-04-25T13:23:26.405Z,98232.40
2023-04-25T13:26:52.403Z,98245.06
2023-04-25T13:35:54.698Z,98236.54
2023-04-25T13:50:30.374Z,98221.57
2023-04-25T14:06:39.383Z,98202.81
2023-04-25T14:10:04.799Z,98212.15
2023-04-25T14:13:49.043Z,98208.26
2023-04-25T14:17:14.094Z,98201.17
2023-04-25T14:26:24.066Z,98189.60
2023-04-25T14:35:29.522Z,98192.29
2023-04-25T14:44:10.761Z,98187.87
2023-04-25T14:48:26.216Z,98188.45
2023-04-25T14:52:29.110Z,98183.66
2023-04-25T15:06:37.669Z,98173.76
2023-04-25T15:10:18.290Z,98170.27
2023-04-25T15:24:41.245Z,98154.23
2023-04-25T15:28:34.446Z,98154.65
2023-04-25T15:42:50.863Z,98150.14
2023-04-25T15:46:35.990Z,98148.45
2023-04-25T15:50:06.784Z,98147.41
2023-04-25T15:53:38.881Z,98143.48
2023-04-25T15:57:23.591Z,98142.09
2023-04-25T16:01:15.714Z,98139.23
2023-04-25T16:11:10.697Z,98128.19
2023-04-25T16:20:28.076Z,98131.73
2023-04-25T16:24:20.126Z,98134.41
2023-04-25T16:27:48.913Z,98134.52
2023-04-25T16:36:46.509Z,98132.02
2023-04-25T16:40:23.524Z,98127.11
2023-04-25T16:43:47.762Z,98131.33
2023-04-25T16:47:49.347Z,98133.95
2023-04-25T16:51:23.695Z,98135.08
2023-04-25T17:09:17.900Z,98139.09
2023-04-25T17:55:56.587Z,98169.13
2023-04-25T18:00:05.247Z,98165.86
2023-04-25T18:11:07.684Z,98172.13
2023-04-25T18:15:10.649Z,98175.73
2023-04-25T18:19:18.963Z,98176.30
2023-04-25T18:22:38.494Z,98181.19
2023-04-25T18:25:59.263Z,98181.72
2023-04-25T18:30:25.049Z,98180.66
2023-04-25T18:33:50.340Z,98182.55
2023-04-25T18:37:39.150Z,98180.83
2023-04-25T18:45:45.833Z,98184.08
2023-04-25T18:49:20.058Z,98186.56
2023-04-25T18:53:05.598Z,98187.45
2023-04-25T18:56:26.755Z,98187.00
2023-04-25T19:00:04.701Z,98185.77
2023-04-25T19:03:30.641Z,98190.26
2023-04-25T19:07:24.674Z,98187.59
2023-04-25T19:11:14.187Z,98184.36
2023-04-25T19:14:50.168Z,98181.75
2023-04-25T19:18:02.302Z,98181.70
2023-04-25T19:21:21.177Z,98181.33
2023-04-25T19:25:09.002Z,98177.28
2023-04-25T19:28:29.003Z,98176.72
2023-04-25T19:31:48.799Z,98180.79
2023-04-25T19:35:32.810Z,98178.66
2023-04-25T19:39:08.975Z,98177.27
2023-04-25T19:42:25.047Z,98179.33
2023-04-25T19:45:48.078Z,98181.88
2023-04-25T19:49:09.640Z,98179.83
2023-04-25T19:52:17.851Z,98177.02
2023-04-25T19:59:27.228Z,98185.45
2023-04-25T20:06:06.790Z,98183.45
2023-04-25T20:09:42.782Z,98182.20
2023-04-25T20:13:51.048Z,98185.34
2023-04-25T20:18:16.484Z,98187.65
2023-04-25T20:27:29.542Z,98197.83
2023-04-25T20:31:10.325Z,98198.46
2023-04-25T20:34:55.409Z,98201.27
2023-04-25T20:38:28.020Z,98203.59
2023-04-25T20:48:02.257Z,98209.23
2023-04-25T20:56:56.118Z,98209.94
2023-04-25T21:09:43.401Z,98215.66
2023-04-25T21:14:23.958Z,98213.04
2023-04-25T21:22:51.016Z,98215.63
2023-04-25T21:26:21.974Z,98216.50
2023-04-25T21:29:51.081Z,98213.77
2023-04-25T21:33:01.470Z,98216.41
2023-04-25T21:36:52.569Z,98212.23
2023-04-25T21:41:25.326Z,98211.84
2023-04-25T21:45:43.404Z,98210.23
2023-04-25T21:50:02.555Z,98205.11
2023-04-25T21:54:07.400Z,98204.41
2023-04-25T21:57:23.190Z,98202.55
2023-04-25T22:31:48.595Z,98190.52
2023-04-25T22:41:37.270Z,98195.09
2023-04-25T22:45:35.915Z,98191.14
2023-04-25T22:49:02.139Z,98188.69
2023-04-25T22:53:00.439Z,98191.56
2023-04-25T22:56:52.293Z,98186.86
2023-04-25T23:01:18.903Z,98188.66
2023-04-25T23:21:02.519Z,98192.52
2023-04-25T23:35:59.297Z,98189.95
2023-04-25T23:39:56.666Z,98188.49
